Time;durP1;ratioP1;P1;durP2;ratioP2;P2;SDS_P1;SDS_P2;PMS_P1;PMS_P2;Temp;Humidity;BMP_temperature;BMP_pressure;BME280_temperature;BME280_humidity;BME280_pressure;Samples;Min_cycle;Max_cycle;Signal;HPM_P1;HPM_P2
2023/01/31 00:00:37;;;;;;;32.80;10.57;;;;;;;1.92;100.00;102578.97;5267335;28;20024;-74
2023/01/31 00:03:08;;;;;;;38.70;9.40;;;;;;;1.93;100.00;102586.84;5258189;28;20112;-73
2023/01/31 00:05:38;;;;;;;51.58;10.05;;;;;;;1.95;100.00;102584.13;5246809;28;20112;-73
2023/01/31 00:08:09;;;;;;;42.50;10.50;;;;;;;1.98;100.00;102584.84;5246969;28;20028;-73
2023/01/31 00:10:40;;;;;;;45.90;9.57;;;;;;;2.03;100.00;102585.50;5245885;28;20031;-74
2023/01/31 00:13:10;;;;;;;58.47;10.18;;;;;;;2.02;100.00;102588.22;5247826;28;20063;-73
2023/01/31 00:15:41;;;;;;;40.72;9.60;;;;;;;2.02;100.00;102578.50;5258232;28;20469;-74
2023/01/31 00:18:11;;;;;;;34.00;9.30;;;;;;;2.05;100.00;102582.78;5260697;28;20020;-73
2023/01/31 00:20:42;;;;;;;35.58;9.40;;;;;;;2.04;100.00;102586.38;5246346;28;20024;-73
2023/01/31 00:23:12;;;;;;;41.45;11.05;;;;;;;2.00;100.00;102582.13;5247243;28;20389;-73
2023/01/31 00:25:43;;;;;;;39.17;11.27;;;;;;;1.95;100.00;102578.81;5255868;28;20019;-73
2023/01/31 00:28:13;;;;;;;36.65;10.25;;;;;;;1.93;100.00;102591.28;5250939;28;20024;-73
2023/01/31 00:30:44;;;;;;;50.97;10.75;;;;;;;1.90;100.00;102586.97;5247333;28;20020;-73
2023/01/31 00:33:14;;;;;;;40.55;9.43;;;;;;;1.87;100.00;102583.63;5250895;28;20152;-73
2023/01/31 00:35:45;;;;;;;41.35;10.60;;;;;;;1.85;100.00;102580.16;5256412;28;20017;-73
2023/01/31 00:38:15;;;;;;;36.15;10.38;;;;;;;1.83;100.00;102584.69;5251180;28;20523;-74
2023/01/31 00:41:04;;;;;;;39.67;11.57;;;;;;;1.75;100.00;102583.22;5256116;28;20112;-74
2023/01/31 00:43:35;;;;;;;61.03;11.57;;;;;;;1.74;100.00;102586.78;5247019;28;20070;-73
2023/01/31 00:46:06;;;;;;;51.30;11.07;;;;;;;1.73;100.00;102578.94;5247451;28;20537;-74
2023/01/31 00:48:36;;;;;;;37.42;10.27;;;;;;;1.71;100.00;102581.66;5245827;28;20389;-73
2023/01/31 00:51:07;;;;;;;57.92;11.98;;;;;;;1.76;100.00;102579.66;5246882;28;20024;-73
2023/01/31 00:53:38;;;;;;;50.63;12.85;;;;;;;1.83;100.00;102580.25;5245786;28;20392;-73
2023/01/31 00:56:13;;;;;;;71.68;11.45;;;;;;;1.85;100.00;102583.66;5246715;28;20028;-74
2023/01/31 00:58:44;;;;;;;50.30;10.90;;;;;;;1.84;100.00;102586.38;5246043;28;20025;-73
2023/01/31 01:01:20;;;;;;;40.47;11.95;;;;;;;1.82;100.00;102583.81;5266142;28;20024;-74
2023/01/31 01:03:51;;;;;;;39.95;11.15;;;;;;;1.83;100.00;102574.94;5265804;28;20357;-73
2023/01/31 01:06:22;;;;;;;47.00;12.68;;;;;;;1.86;100.00;102584.53;5246241;28;20024;-73
2023/01/31 01:08:55;;;;;;;43.78;11.43;;;;;;;1.86;100.00;102568.66;5246976;28;20035;-74
2023/01/31 01:11:29;;;;;;;49.20;12.02;;;;;;;1.88;100.00;102561.50;5244987;28;20028;-73
2023/01/31 01:14:00;;;;;;;44.43;10.60;;;;;;;1.87;100.00;102573.03;5246465;28;20052;-74
2023/01/31 01:16:35;;;;;;;43.25;12.35;;;;;;;1.85;100.00;102561.63;5249075;28;20089;-74
2023/01/31 01:19:11;;;;;;;;;;;;;;;1.78;100.00;102550.47;5247042;28;20028;-74
2023/01/31 01:21:43;;;;;;;42.78;11.38;;;;;;;1.74;100.00;102554.19;5246086;28;19985;-73
2023/01/31 01:24:17;;;;;;;54.53;12.63;;;;;;;1.72;100.00;102559.56;5246046;28;20528;-74
2023/01/31 01:26:48;;;;;;;31.13;10.95;;;;;;;1.67;100.00;102556.25;5245569;28;20162;-74
2023/01/31 01:29:18;;;;;;;52.55;11.13;;;;;;;1.67;100.00;102558.03;5246314;28;20103;-74
2023/01/31 01:31:49;;;;;;;52.38;13.60;;;;;;;1.68;100.00;102550.03;5245723;28;20111;-74
2023/01/31 01:34:20;;;;;;;40.58;11.75;;;;;;;1.68;100.00;102557.09;5245880;28;20017;-73
2023/01/31 01:36:50;;;;;;;61.50;13.25;;;;;;;1.68;100.00;102562.41;5258043;28;20115;-74
2023/01/31 01:39:21;;;;;;;46.03;11.85;;;;;;;1.65;100.00;102560.72;5245929;28;20020;-73
2023/01/31 01:41:51;;;;;;;49.53;11.73;;;;;;;1.60;100.00;102559.22;5245797;28;20086;-74
2023/01/31 01:44:42;;;;;;;53.83;11.55;;;;;;;1.58;100.00;102559.28;5245352;28;20031;-74
2023/01/31 01:47:34;;;;;;;56.72;12.95;;;;;;;1.60;100.00;102557.41;5245028;28;20033;-74
2023/01/31 01:50:26;;;;;;;59.75;12.82;;;;;;;1.57;100.00;102564.66;5245501;28;20021;-74
2023/01/31 01:53:12;;;;;;;49.13;11.95;;;;;;;1.53;100.00;102561.28;5245430;28;20089;-74
2023/01/31 01:55:49;;;;;;;46.40;12.98;;;;;;;1.49;100.00;102564.97;5245865;28;20157;-74
2023/01/31 01:58:39;;;;;;;46.80;11.80;;;;;;;1.44;100.00;102564.31;5244910;28;20051;-74
2023/01/31 02:01:12;;;;;;;50.60;12.20;;;;;;;1.40;100.00;102563.56;5250719;28;20028;-74
2023/01/31 02:03:46;;;;;;;50.33;12.80;;;;;;;1.34;100.00;102557.69;5251215;28;20025;-74
2023/01/31 02:06:28;;;;;;;;;;;;;;;1.36;100.00;102543.50;5245684;28;20027;-74
2023/01/31 02:08:59;;;;;;;58.70;12.60;;;;;;;1.36;100.00;102543.50;5244999;28;19908;-74
2023/01/31 02:11:30;;;;;;;42.53;11.98;;;;;;;1.36;100.00;102547.91;5235138;28;20683;-74
2023/01/31 02:14:10;;;;;;;42.75;13.63;;;;;;;1.37;100.00;102539.06;5258365;28;20028;-74
2023/01/31 02:16:59;;;;;;;61.22;13.40;;;;;;;1.36;100.00;102538.19;5248069;28;20086;-74
2023/01/31 02:20:14;;;;;;;52.17;12.10;;;;;;;1.35;100.00;102536.47;5244526;28;20037;-74
2023/01/31 02:23:14;;;;;;;60.13;13.27;;;;;;;1.35;100.00;102543.53;5255849;28;20494;-74
2023/01/31 02:26:44;;;;;;;52.78;13.45;;;;;;;1.36;100.00;102542.63;5245075;28;20032;-74
2023/01/31 02:29:33;;;;;;;59.30;13.38;;;;;;;1.38;100.00;102525.75;5245067;28;20024;-74
2023/01/31 02:32:32;;;;;;;52.58;12.40;;;;;;;1.40;100.00;102541.56;5244443;28;20032;-74
2023/01/31 02:35:26;;;;;;;47.97;12.60;;;;;;;1.38;100.00;102548.72;5244464;28;20032;-74
2023/01/31 02:38:26;;;;;;;48.15;12.63;;;;;;;1.37;100.00;102544.34;5244129;28;20016;-74
2023/01/31 02:41:19;;;;;;;47.88;12.60;;;;;;;1.38;100.00;102548.72;5244306;28;20032;-74
2023/01/31 02:47:35;;;;;;;51.17;16.40;;;;;;;1.40;100.00;102531.81;5244270;28;20067;-74
2023/01/31 02:50:25;;;;;;;55.47;12.55;;;;;;;1.38;100.00;102540.78;5244810;28;20030;-74
2023/01/31 02:52:59;;;;;;;56.67;12.77;;;;;;;1.36;100.00;102522.34;5248862;28;20036;-74
2023/01/31 02:56:14;;;;;;;58.10;13.82;;;;;;;1.34;100.00;102540.03;5265676;28;20020;-74
2023/01/31 02:59:05;;;;;;;69.57;15.00;;;;;;;1.31;100.00;102534.03;5245410;28;20029;-74
2023/01/31 03:01:40;;;;;;;41.15;12.98;;;;;;;1.27;100.00;102534.16;5244876;28;20024;-74
2023/01/31 03:04:13;;;;;;;49.85;12.25;;;;;;;1.29;100.00;102539.38;5257658;28;20386;-74
2023/01/31 03:07:17;;;;;;;61.88;12.23;;;;;;;1.26;100.00;102543.03;5244518;28;20036;-74
2023/01/31 03:10:26;;;;;;;48.55;14.45;;;;;;;1.26;100.00;102531.59;5244508;28;20095;-74
2023/01/31 03:13:28;;;;;;;61.80;12.80;;;;;;;1.31;100.00;102534.03;5245041;28;20040;-74
2023/01/31 03:19:47;;;;;;;49.92;13.15;;;;;;;1.43;100.00;102522.91;5244740;28;20032;-74
2023/01/31 03:22:25;;;;;;;55.87;12.40;;;;;;;1.49;100.00;102526.16;5244158;28;20016;-74
2023/01/31 03:24:57;;;;;;;50.33;13.07;;;;;;;1.54;100.00;102521.50;5244048;28;20028;-74
2023/01/31 03:27:27;;;;;;;37.17;13.27;;;;;;;1.55;100.00;102515.28;5244197;28;20032;-74
2023/01/31 03:30:04;;;;;;;51.70;13.07;;;;;;;1.62;100.00;102522.97;5244533;28;20032;-74
2023/01/31 03:32:44;;;;;;;51.17;13.50;;;;;;;1.63;100.00;102520.25;5243355;28;20040;-74
2023/01/31 03:35:15;;;;;;;47.78;14.45;;;;;;;1.67;100.00;102515.69;5264410;28;20209;-74
2023/01/31 03:38:12;;;;;;;47.03;14.20;;;;;;;1.67;100.00;102521.00;5251216;28;20107;-74
2023/01/31 03:40:53;;;;;;;41.67;13.45;;;;;;;1.66;100.00;102516.63;5244666;28;20529;-74
2023/01/31 03:43:49;;;;;;;43.13;12.35;;;;;;;1.63;100.00;102504.38;5244517;28;20106;-74
2023/01/31 03:46:41;;;;;;;45.70;12.60;;;;;;;1.56;100.00;102508.25;5248586;28;20020;-74
2023/01/31 03:49:14;;;;;;;45.15;13.05;;;;;;;1.49;100.00;102515.56;5248924;28;20115;-74
2023/01/31 03:51:50;;;;;;;46.67;13.98;;;;;;;1.47;100.00;102504.22;5248816;28;20058;-74
2023/01/31 03:54:27;;;;;;;60.63;14.75;;;;;;;1.45;100.00;102513.13;5248332;28;20028;-74
2023/01/31 03:57:17;;;;;;;54.35;14.38;;;;;;;1.39;100.00;102506.31;5247151;28;20095;-74
2023/01/31 03:59:52;;;;;;;56.85;14.93;;;;;;;1.33;100.00;102497.81;5248393;28;20535;-74
2023/01/31 04:02:31;;;;;;;53.92;15.05;;;;;;;1.26;100.00;102500.72;5250078;28;20103;-74
2023/01/31 04:05:20;;;;;;;53.17;13.63;;;;;;;1.22;100.00;102512.34;5240294;28;20043;-74
2023/01/31 04:07:50;;;;;;;40.28;14.00;;;;;;;1.21;100.00;102505.34;5247715;28;20118;-74
2023/01/31 04:10:21;;;;;;;50.92;15.32;;;;;;;1.17;100.00;102511.69;5247115;28;20108;-74
2023/01/31 04:12:53;;;;;;;54.25;15.32;;;;;;;1.12;100.00;102520.72;5248296;28;20017;-74
2023/01/31 04:15:23;;;;;;;43.80;14.88;;;;;;;1.08;100.00;102527.91;5257022;28;20023;-74
2023/01/31 04:17:53;;;;;;;50.53;14.57;;;;;;;1.10;100.00;102531.34;5247506;28;20028;-74
2023/01/31 04:20:24;;;;;;;50.50;15.00;;;;;;;1.06;100.00;102529.78;5247722;28;20495;-74
2023/01/31 04:22:55;;;;;;;49.20;14.45;;;;;;;1.02;100.00;102536.97;5247807;28;20473;-74
2023/01/31 04:25:25;;;;;;;48.88;14.65;;;;;;;1.00;100.00;102537.94;5247318;28;20119;-74
2023/01/31 04:27:56;;;;;;;46.60;15.63;;;;;;;0.98;100.00;102542.44;5260467;28;20032;-74
2023/01/31 04:30:26;;;;;;;50.47;14.90;;;;;;;0.98;100.00;102531.88;5261197;28;20378;-74
2023/01/31 04:32:57;;;;;;;54.28;15.25;;;;;;;0.95;100.00;102527.56;5246824;28;20032;-74
2023/01/31 04:35:27;;;;;;;53.38;15.23;;;;;;;0.92;100.00;102522.41;5247345;28;20052;-74
2023/01/31 04:37:58;;;;;;;51.80;17.58;;;;;;;0.91;100.00;102518.06;5258883;28;20085;-74
2023/01/31 04:40:28;;;;;;;46.38;14.95;;;;;;;0.92;100.00;102516.28;5245927;28;20078;-74
2023/01/31 04:42:59;;;;;;;61.65;17.27;;;;;;;0.96;100.00;102510.81;5245545;28;20021;-74
2023/01/31 04:45:29;;;;;;;53.38;15.85;;;;;;;0.97;100.00;102517.81;5247511;28;20059;-74
2023/01/31 04:47:59;;;;;;;54.10;16.00;;;;;;;0.98;100.00;102527.44;5247080;28;20021;-74
2023/01/31 04:50:30;;;;;;;68.65;20.38;;;;;;;1.02;100.00;102522.91;5245809;28;20032;-74
2023/01/31 04:53:00;;;;;;;55.33;15.48;;;;;;;1.00;100.00;102515.03;5247085;28;20112;-74
2023/01/31 04:55:31;;;;;;;48.28;15.27;;;;;;;1.02;100.00;102512.31;5246623;28;20043;-74
2023/01/31 04:58:02;;;;;;;40.05;15.15;;;;;;;1.03;100.00;102509.59;5245548;28;20138;-74
2023/01/31 05:00:32;;;;;;;41.30;14.15;;;;;;;1.05;100.00;102496.31;5246002;28;20031;-74
2023/01/31 05:03:03;;;;;;;52.70;14.85;;;;;;;1.00;100.00;102490.38;5255458;28;20031;-74
2023/01/31 05:05:33;;;;;;;41.97;13.63;;;;;;;1.03;100.00;102493.75;5251223;28;20115;-74
2023/01/31 05:08:04;;;;;;;51.70;15.25;;;;;;;1.12;100.00;102471.38;5256403;28;20052;-74
2023/01/31 05:10:35;;;;;;;57.88;16.67;;;;;;;1.14;100.00;102468.66;5249797;28;20024;-74
2023/01/31 05:13:06;;;;;;;50.85;14.02;;;;;;;1.17;100.00;102472.03;5246421;28;20028;-74
2023/01/31 05:15:37;;;;;;;37.53;13.25;;;;;;;1.20;100.00;102466.59;5255642;28;20101;-74
2023/01/31 05:18:08;;;;;;;63.20;13.68;;;;;;;1.28;100.00;102467.13;5259316;28;20066;-74
2023/01/31 05:20:39;;;;;;;42.58;12.30;;;;;;;1.28;100.00;102460.97;5245914;28;20028;-74
2023/01/31 05:23:10;;;;;;;50.47;14.93;;;;;;;1.27;100.00;102461.91;5246729;28;20025;-74
2023/01/31 05:25:40;;;;;;;40.25;13.65;;;;;;;1.28;100.00;102466.25;5257807;28;20036;-74
2023/01/31 05:28:11;;;;;;;52.63;13.48;;;;;;;1.30;100.00;102461.75;5260866;28;20051;-74
2023/01/31 05:30:43;;;;;;;43.10;12.20;;;;;;;1.32;100.00;102452.00;5257783;28;20062;-74
2023/01/31 05:33:13;;;;;;;36.10;13.25;;;;;;;1.31;100.00;102452.94;5245891;28;20032;-74
2023/01/31 05:35:44;;;;;;;48.60;14.27;;;;;;;1.31;100.00;102447.63;5245928;28;20066;-74
2023/01/31 05:38:15;;;;;;;45.15;12.05;;;;;;;1.36;100.00;102453.59;5263266;28;20477;-74
2023/01/31 05:40:45;;;;;;;37.72;10.95;;;;;;;1.38;100.00;102442.94;5255207;28;20485;-74
2023/01/31 05:43:16;;;;;;;44.22;11.55;;;;;;;1.41;100.00;102435.72;5264984;28;20031;-74
2023/01/31 05:45:47;;;;;;;37.97;11.32;;;;;;;1.47;100.00;102438.09;5253857;28;20073;-74
2023/01/31 05:48:18;;;;;;;39.72;10.38;;;;;;;1.52;100.00;102427.31;5252896;28;20418;-74
2023/01/31 05:50:49;;;;;;;40.45;10.68;;;;;;;1.60;100.00;102435.72;5264311;28;20080;-74
2023/01/31 05:53:21;;;;;;;44.65;11.05;;;;;;;1.66;100.00;102426.69;5253142;28;20498;-74
2023/01/31 05:55:53;;;;;;;41.28;10.90;;;;;;;1.69;100.00;102424.72;5253460;28;20055;-74
2023/01/31 05:58:23;;;;;;;46.33;10.85;;;;;;;1.74;100.00;102428.03;5266494;28;20480;-74
2023/01/31 06:00:55;;;;;;;39.92;9.13;;;;;;;1.78;100.00;102428.75;5251235;28;20039;-74
2023/01/31 06:03:26;;;;;;;79.50;31.23;;;;;;;1.85;100.00;102430.16;5266257;28;20503;-75
2023/01/31 06:05:56;;;;;;;41.42;14.88;;;;;;;1.90;100.00;102424.66;5247012;28;20028;-74
2023/01/31 06:08:27;;;;;;;66.40;22.67;;;;;;;1.96;100.00;102427.91;5259068;28;20066;-74
2023/01/31 06:11:01;;;;;;;367.65;127.70;;;;;;;2.00;100.00;102433.88;5244301;28;20029;-74
2023/01/31 06:13:31;;;;;;;34.75;10.48;;;;;;;2.02;100.00;102424.97;5245512;28;20091;-74
2023/01/31 06:16:02;;;;;;;46.70;16.02;;;;;;;2.13;100.00;102424.44;5250592;28;20540;-74
2023/01/31 06:18:33;;;;;;;33.50;9.18;;;;;;;2.15;100.00;102427.00;5247793;28;20078;-74
2023/01/31 06:21:03;;;;;;;28.00;10.13;;;;;;;2.17;100.00;102426.03;5247118;28;20024;-75
2023/01/31 06:23:34;;;;;;;44.35;8.85;;;;;;;2.19;100.00;102412.69;5245277;28;20043;-75
2023/01/31 06:26:05;;;;;;;36.47;8.57;;;;;;;2.19;100.00;102413.56;5245231;28;20038;-74
2023/01/31 06:28:35;;;;;;;38.47;10.10;;;;;;;2.25;100.00;102428.28;5258886;28;20059;-74
2023/01/31 06:31:07;;;;;;;42.53;11.20;;;;;;;2.28;100.00;102429.00;5245495;28;20025;-75
2023/01/31 06:33:38;;;;;;;40.25;9.63;;;;;;;2.30;100.00;102426.28;5258731;28;20050;-75
2023/01/31 06:36:08;;;;;;;30.58;7.32;;;;;;;2.33;100.00;102416.41;5257695;28;20048;-74
2023/01/31 06:38:39;;;;;;;35.92;8.98;;;;;;;2.39;100.00;102432.91;5244847;28;20020;-75
2023/01/31 06:41:11;;;;;;;34.10;7.80;;;;;;;2.41;100.00;102413.38;5245085;28;20041;-74
2023/01/31 06:43:43;;;;;;;36.55;8.75;;;;;;;2.43;100.00;102408.00;5245228;28;20029;-74
2023/01/31 06:46:13;;;;;;;38.10;7.72;;;;;;;2.47;100.00;102412.22;5243928;28;20067;-74
2023/01/31 06:48:44;;;;;;;40.40;10.27;;;;;;;2.52;100.00;102411.06;5244560;28;20111;-75
2023/01/31 06:51:15;;;;;;;41.92;8.40;;;;;;;2.58;100.00;102428.44;5244355;28;20441;-74
2023/01/31 06:53:45;;;;;;;36.60;8.82;;;;;;;2.68;100.00;102436.78;5244806;28;20027;-74
2023/01/31 06:56:16;;;;;;;31.35;8.38;;;;;;;2.71;100.00;102433.97;5244802;28;20032;-74
2023/01/31 06:58:46;;;;;;;30.65;9.10;;;;;;;2.72;100.00;102425.09;5245882;28;20052;-74
2023/01/31 07:01:17;;;;;;;46.80;7.45;;;;;;;2.73;100.00;102430.31;5250764;28;20099;-74
2023/01/31 07:03:47;;;;;;;43.83;8.93;;;;;;;2.73;100.00;102425.03;5263359;28;20032;-74
2023/01/31 07:06:20;;;;;;;35.65;7.82;;;;;;;2.76;100.00;102419.59;5254121;28;20085;-75
2023/01/31 07:08:51;;;;;;;36.35;9.23;;;;;;;2.76;100.00;102419.59;5252423;28;20039;-74
2023/01/31 07:11:21;;;;;;;39.97;7.80;;;;;;;2.82;100.00;102424.56;5255430;28;20457;-74
2023/01/31 07:13:52;;;;;;;32.08;8.57;;;;;;;2.86;100.00;102422.59;5247756;28;20119;-74
2023/01/31 07:16:24;;;;;;;33.20;7.70;;;;;;;2.88;100.00;102423.38;5249015;28;20032;-74
2023/01/31 07:18:54;;;;;;;28.63;7.60;;;;;;;2.89;100.00;102419.81;5246029;28;20512;-74
2023/01/31 07:21:25;;;;;;;30.52;7.30;;;;;;;2.93;100.00;102415.22;5249054;28;20028;-74
2023/01/31 07:23:56;;;;;;;31.35;7.40;;;;;;;2.96;100.00;102428.28;5248692;28;20431;-74
2023/01/31 07:26:26;;;;;;;37.80;11.40;;;;;;;2.99;100.00;102430.78;5248858;28;20024;-74
2023/01/31 07:28:57;;;;;;;39.28;8.10;;;;;;;3.03;100.00;102425.25;5249037;28;20400;-75
2023/01/31 07:31:27;;;;;;;27.48;7.72;;;;;;;3.07;100.00;102428.63;5247687;28;20565;-74
2023/01/31 07:33:58;;;;;;;23.23;6.95;;;;;;;3.11;100.00;102423.06;5249411;28;20078;-74
2023/01/31 07:36:28;;;;;;;32.65;7.70;;;;;;;3.16;100.00;102428.13;5248568;28;20365;-75
2023/01/31 07:39:00;;;;;;;38.70;10.40;;;;;;;3.20;100.00;102432.31;5248862;28;20074;-75
2023/01/31 07:41:33;;;;;;;52.42;19.52;;;;;;;3.31;100.00;102439.72;5249277;28;20074;-74
2023/01/31 07:44:07;;;;;;;29.25;9.45;;;;;;;3.32;100.00;102425.53;5248074;28;20038;-74
2023/01/31 07:46:39;;;;;;;30.30;8.23;;;;;;;3.34;100.00;102429.81;5248698;28;20056;-74
2023/01/31 07:49:10;;;;;;;29.00;7.20;;;;;;;3.37;100.00;102426.16;5248916;28;20031;-75
2023/01/31 07:51:42;;;;;;;34.78;6.72;;;;;;;3.42;100.00;102425.91;5247098;28;20020;-74
2023/01/31 07:54:12;;;;;;;30.42;6.53;;;;;;;3.45;100.00;102426.59;5248636;28;20072;-75
2023/01/31 07:57:01;;;;;;;37.38;7.70;;;;;;;3.46;100.00;102420.34;5246996;28;20461;-74
2023/01/31 07:59:32;;;;;;;25.23;7.13;;;;;;;3.50;100.00;102421.88;5248153;28;20043;-74
2023/01/31 08:04:52;;;;;;;38.20;7.18;;;;;;;3.55;100.00;102421.66;5267689;28;20110;-74
2023/01/31 08:07:23;;;;;;;34.78;8.07;;;;;;;3.59;100.00;102420.56;5231747;28;20103;-74
2023/01/31 08:09:56;;;;;;;27.65;7.32;;;;;;;3.66;100.00;102423.72;5245822;28;20393;-75
2023/01/31 08:12:26;;;;;;;28.73;7.70;;;;;;;3.74;100.00;102421.50;5245831;28;20187;-74
2023/01/31 08:14:57;;;;;;;30.80;6.35;;;;;;;3.83;100.00;102426.31;5248662;28;20008;-75
2023/01/31 08:17:27;;;;;;;28.88;7.53;;;;;;;3.89;100.00;102418.03;5259695;28;20391;-75
2023/01/31 08:19:58;;;;;;;27.00;6.72;;;;;;;3.96;100.00;102410.56;5246499;28;20020;-75
2023/01/31 08:22:28;;;;;;;26.42;7.00;;;;;;;4.06;100.00;102394.03;5254135;28;20027;-75
2023/01/31 08:24:59;;;;;;;33.47;7.25;;;;;;;4.14;100.00;102396.25;5250693;28;20088;-75
2023/01/31 08:27:30;;;;;;;25.88;5.70;;;;;;;4.24;100.00;102386.81;5246138;28;20039;-75
2023/01/31 08:30:01;;;;;;;21.08;6.30;;;;;;;4.28;100.00;102371.56;5245165;28;20439;-75
2023/01/31 08:32:31;;;;;;;35.38;7.35;;;;;;;4.36;100.00;102369.31;5246027;28;20024;-75
2023/01/31 08:35:02;;;;;;;26.63;5.75;;;;;;;4.38;100.00;102373.59;5245913;28;20020;-75
2023/01/31 08:37:33;;;;;;;21.17;6.13;;;;;;;4.44;100.00;102372.38;5245369;28;20103;-75
2023/01/31 08:40:04;;;;;;;30.85;5.07;;;;;;;4.51;100.00;102370.22;5244765;28;20067;-75
2023/01/31 08:42:34;;;;;;;28.70;5.97;;;;;;;4.58;100.00;102360.97;5245498;28;20022;-75
2023/01/31 08:45:06;;;;;;;33.40;7.07;;;;;;;4.59;100.00;102363.50;5245617;28;20032;-75
2023/01/31 08:47:37;;;;;;;31.38;5.90;;;;;;;4.61;100.00;102371.38;5258994;28;20028;-75
2023/01/31 08:50:09;;;;;;;24.70;6.35;;;;;;;4.61;100.00;102372.25;5257354;28;20528;-74
2023/01/31 08:52:40;;;;;;;22.92;5.78;;;;;;;4.66;100.00;102364.00;5244081;28;20059;-74
2023/01/31 08:55:12;;;;;;;29.63;5.57;;;;;;;4.65;100.00;102373.78;5245613;28;20048;-74
2023/01/31 08:57:44;;;;;;;20.98;5.53;;;;;;;4.72;100.00;102368.97;5245617;28;20446;-74
2023/01/31 09:00:17;;;;;;;34.53;6.03;;;;;;;4.79;100.00;102364.13;5257494;28;20504;-74
2023/01/31 09:03:03;;;;;;;22.92;5.65;;;;;;;4.84;100.00;102354.09;5246284;28;20035;-75
2023/01/31 09:05:34;;;;;;;35.58;8.70;;;;;;;4.84;100.00;102356.75;5245013;28;20401;-75
2023/01/31 09:08:04;;;;;;;29.67;5.63;;;;;;;4.89;100.00;102347.53;5255759;28;20024;-75
2023/01/31 09:10:35;;;;;;;34.22;5.72;;;;;;;4.94;100.00;102337.47;5247295;28;20054;-74
2023/01/31 09:13:05;;;;;;;24.40;6.25;;;;;;;4.99;100.00;102341.66;5244987;28;20016;-75
2023/01/31 09:15:36;;;;;;;32.00;6.00;;;;;;;5.03;100.00;102336.06;5253180;28;20035;-75
2023/01/31 09:18:06;;;;;;;36.40;7.15;;;;;;;5.18;100.00;102344.91;5251287;28;20021;-74
2023/01/31 09:20:37;;;;;;;29.23;6.50;;;;;;;5.25;100.00;102343.56;5243582;28;20031;-75
2023/01/31 09:23:07;;;;;;;27.45;5.78;;;;;;;5.33;100.00;102359.91;5245626;28;20033;-74
2023/01/31 09:25:38;;;;;;;27.58;6.38;;;;;;;5.40;100.00;102355.06;5265748;28;20024;-74
2023/01/31 09:28:08;;;;;;;22.38;5.60;;;;;;;5.41;100.00;102351.44;5248317;28;20398;-75
2023/01/31 09:30:39;;;;;;;27.35;6.72;;;;;;;5.37;100.00;102345.47;5243378;28;20037;-75
2023/01/31 09:33:09;;;;;;;24.67;5.03;;;;;;;5.41;100.00;102352.28;5246777;28;20028;-74
2023/01/31 09:35:39;;;;;;;28.45;6.63;;;;;;;5.43;100.00;102355.72;5255039;28;20496;-74
2023/01/31 09:38:10;;;;;;;22.45;5.25;;;;;;;5.46;100.00;102358.19;5243019;28;20548;-74
2023/01/31 09:40:40;;;;;;;31.23;7.05;;;;;;;5.48;100.00;102354.59;5256236;28;20392;-74
2023/01/31 09:43:11;;;;;;;25.80;4.82;;;;;;;5.44;100.00;102349.44;5245450;28;20119;-74
2023/01/31 09:45:44;;;;;;;27.83;5.90;;;;;;;5.46;100.00;102341.34;5243520;28;20400;-74
2023/01/31 09:48:21;;;;;;;20.27;5.45;;;;;;;5.50;100.00;102355.34;5242629;28;20392;-74
2023/01/31 09:50:54;;;;;;;22.25;5.63;;;;;;;5.55;100.00;102339.94;5242911;28;20035;-74
2023/01/31 09:53:31;;;;;;;24.75;6.75;;;;;;;5.61;100.00;102336.88;5244578;28;20025;-75
2023/01/31 09:56:30;;;;;;;26.55;5.45;;;;;;;5.69;100.00;102318.59;5243240;28;20025;-75
2023/01/31 09:59:28;;;;;;;32.60;5.70;;;;;;;5.75;100.00;102323.53;5256304;28;20388;-75
2023/01/31 10:02:29;;;;;;;24.92;7.20;;;;;;;6.08;100.00;102317.84;5244130;28;20025;-74
2023/01/31 10:05:04;;;;;;;30.25;6.93;;;;;;;6.15;100.00;102329.81;5264761;28;20123;-74
2023/01/31 10:07:44;;;;;;;20.73;5.88;;;;;;;6.09;100.00;102314.22;5243574;28;20039;-75
2023/01/31 10:10:52;;;;;;;30.80;6.03;;;;;;;6.00;100.00;102329.97;5257333;28;20051;-74
2023/01/31 10:13:30;;;;;;;25.40;6.40;;;;;;;6.00;100.00;102327.31;5243481;28;20043;-74
2023/01/31 10:16:13;;;;;;;23.70;6.43;;;;;;;5.98;100.00;102332.75;5254844;28;20028;-74
2023/01/31 10:18:50;;;;;;;24.10;7.78;;;;;;;6.04;100.00;102342.13;5245183;28;20020;-75
2023/01/31 10:21:27;;;;;;;40.08;14.32;;;;;;;6.14;100.00;102336.09;5242246;28;20150;-74
2023/01/31 10:24:04;;;;;;;38.95;8.90;;;;;;;6.29;100.00;102326.25;5243678;28;20017;-75
2023/01/31 10:26:39;;;;;;;33.75;9.13;;;;;;;6.38;100.00;102314.97;5245846;28;20056;-75
2023/01/31 10:29:30;;;;;;;26.10;10.90;;;;;;;6.69;100.00;102323.53;5253790;28;20025;-74
2023/01/31 10:32:05;;;;;;;32.08;10.05;;;;;;;7.09;100.00;102321.63;5263697;28;20028;-75
2023/01/31 10:34:52;;;;;;;30.98;6.57;;;;;;;7.42;100.00;102318.38;5231846;28;20021;-75
2023/01/31 10:37:32;;;;;;;32.05;7.30;;;;;;;7.53;100.00;102310.47;5243578;28;20542;-75
2023/01/31 10:40:12;;;;;;;24.70;8.18;;;;;;;7.41;100.00;102311.31;5243625;28;20099;-75
2023/01/31 10:42:51;;;;;;;30.70;7.10;;;;;;;7.22;100.00;102311.78;5243265;28;20035;-75
2023/01/31 10:45:29;;;;;;;17.10;5.95;;;;;;;7.21;100.00;102314.56;5254460;28;20657;-75
2023/01/31 10:48:24;;;;;;;21.73;5.60;;;;;;;7.18;100.00;102285.44;5259208;28;20392;-75
2023/01/31 10:51:17;;;;;;;23.02;7.57;;;;;;;7.16;100.00;102268.66;5241500;28;20021;-75
2023/01/31 10:54:12;;;;;;;23.55;7.15;;;;;;;7.50;100.00;102278.63;5243257;28;20035;-75
2023/01/31 10:56:46;;;;;;;28.03;8.23;;;;;;;7.76;100.00;102251.81;5243307;28;20089;-75
2023/01/31 10:59:28;;;;;;;24.27;6.93;;;;;;;7.84;100.00;102264.63;5254758;28;20031;-75
2023/01/31 11:02:01;;;;;;;33.88;6.65;;;;;;;7.81;100.00;102264.84;5256632;28;20473;-75
2023/01/31 11:04:37;;;;;;;30.73;7.40;;;;;;;7.84;100.00;102278.84;5239285;28;20381;-75
2023/01/31 11:07:09;;;;;;;27.38;8.75;;;;;;;7.72;100.00;102269.88;5260000;28;20097;-76
2023/01/31 11:09:44;;;;;;;22.65;8.18;;;;;;;7.71;100.00;102272.69;5254351;28;20393;-75
2023/01/31 11:12:15;;;;;;;19.10;5.95;;;;;;;7.68;100.00;102265.75;5243129;28;20035;-75
2023/01/31 11:15:05;;;;;;;13.75;5.82;;;;;;;7.72;100.00;102269.88;5245639;28;20385;-75
2023/01/31 11:17:36;;;;;;;16.40;4.85;;;;;;;7.77;100.00;102248.16;5243213;28;20031;-75
2023/01/31 11:20:21;;;;;;;24.15;6.25;;;;;;;7.83;100.00;102246.84;5238808;28;20740;-76
2023/01/31 11:22:53;;;;;;;32.05;6.78;;;;;;;7.83;100.00;102261.09;5253132;28;20392;-75
2023/01/31 11:25:25;;;;;;;20.45;6.00;;;;;;;7.88;100.00;102256.25;5249036;28;20549;-75
2023/01/31 11:28:00;;;;;;;25.25;7.07;;;;;;;7.99;100.00;102253.63;5251564;28;20031;-75
2023/01/31 11:30:34;;;;;;;23.50;4.90;;;;;;;8.02;100.00;102245.38;5243254;28;20028;-76
2023/01/31 11:33:05;;;;;;;20.87;4.73;;;;;;;7.97;100.00;102242.19;5226640;28;20059;-76
2023/01/31 11:35:36;;;;;;;30.20;7.63;;;;;;;7.96;100.00;102240.50;5243290;28;20683;-75
2023/01/31 11:38:22;;;;;;;19.48;7.03;;;;;;;8.04;100.00;102245.28;5256887;28;20111;-75
2023/01/31 11:40:52;;;;;;;26.92;5.55;;;;;;;7.93;100.00;102243.41;5242667;28;20036;-75
2023/01/31 11:43:25;;;;;;;28.50;6.60;;;;;;;7.90;100.00;102242.78;5243354;28;20024;-75
2023/01/31 11:45:58;;;;;;;22.45;6.47;;;;;;;7.81;100.00;102228.28;5243510;28;20499;-76
2023/01/31 11:48:40;;;;;;;18.67;6.03;;;;;;;7.89;100.00;102225.91;5241705;28;20028;-75
2023/01/31 11:51:25;;;;;;;29.55;7.35;;;;;;;7.89;100.00;102225.06;5242353;28;20078;-75
2023/01/31 11:53:56;;;;;;;19.55;6.38;;;;;;;7.84;100.00;102232.56;5243055;28;20411;-75
2023/01/31 11:56:33;;;;;;;27.52;5.22;;;;;;;7.79;100.00;102224.88;5262837;28;20024;-75
2023/01/31 11:59:08;;;;;;;26.85;6.20;;;;;;;7.74;100.00;102211.88;5258931;28;20021;-76
2023/01/31 12:01:52;;;;;;;16.27;5.47;;;;;;;7.79;100.00;102204.34;5242279;28;20035;-75